createdAt,value
2018-06-15T18:05:12.100Z,24.20
2018-06-15T18:07:40.805Z,24.00
2018-06-15T18:10:09.097Z,23.70
2018-06-15T18:12:38.201Z,23.50
2018-06-15T18:15:06.813Z,23.20
2018-06-15T18:17:35.709Z,23.00
2018-06-15T18:20:04.588Z,22.80
2018-06-15T18:22:33.424Z,22.60
2018-06-15T18:25:02.021Z,22.50
2018-06-15T18:27:30.625Z,22.30
2018-06-15T18:29:59.146Z,22.20
2018-06-15T18:32:27.924Z,22.10
2018-06-15T18:34:56.830Z,22.00
2018-06-15T18:37:25.450Z,21.90
2018-06-15T18:39:54.147Z,21.90
2018-06-15T18:42:22.743Z,21.80
2018-06-15T18:44:51.299Z,21.80
2018-06-15T18:47:19.849Z,21.70
2018-06-15T18:49:48.444Z,21.70
2018-06-15T18:52:16.971Z,21.70
2018-06-15T18:54:45.533Z,21.80
2018-06-15T18:57:14.270Z,21.80
2018-06-15T18:59:43.098Z,21.70
2018-06-15T19:02:11.700Z,21.70
2018-06-15T19:04:41.558Z,21.70
2018-06-15T19:07:10.414Z,21.60
2018-06-15T19:09:39.044Z,21.50
2018-06-15T19:12:07.753Z,21.50
2018-06-15T19:14:36.488Z,21.40
2018-06-15T19:17:05.439Z,21.30
2018-06-15T19:19:35.090Z,21.30
2018-06-15T19:22:03.703Z,21.20
2018-06-15T19:24:32.372Z,21.10
2018-06-15T19:27:01.164Z,21.00
2018-06-15T19:29:29.735Z,20.90
2018-06-15T19:32:00.460Z,20.80
2018-06-15T19:34:29.252Z,20.80
2018-06-15T19:36:57.796Z,20.70
2018-06-15T19:39:26.404Z,20.70
2018-06-15T19:41:55.268Z,20.60
2018-06-15T19:44:25.257Z,20.50
2018-06-15T19:46:54.534Z,20.40
2018-06-15T19:49:23.144Z,20.40
2018-06-15T19:51:51.795Z,20.30
2018-06-15T19:54:20.567Z,20.30
2018-06-15T19:56:49.467Z,20.20
2018-06-15T19:59:18.266Z,20.20
2018-06-15T20:01:46.927Z,20.10
2018-06-15T20:04:17.087Z,20.00
2018-06-15T20:06:46.081Z,19.90
2018-06-15T20:09:14.715Z,19.90
2018-06-15T20:11:43.611Z,19.80
2018-06-15T20:14:12.189Z,19.80
2018-06-15T20:16:40.831Z,19.70
2018-06-15T20:19:09.685Z,19.70
2018-06-15T20:21:38.231Z,19.60
2018-06-15T20:24:06.833Z,19.60
2018-06-15T20:26:35.396Z,19.50
2018-06-15T20:29:04.167Z,19.50
2018-06-15T20:31:32.865Z,19.50
2018-06-15T20:34:01.482Z,19.50
2018-06-15T20:36:30.286Z,19.50
2018-06-15T20:38:59.097Z,19.40
2018-06-15T20:41:27.715Z,19.30
2018-06-15T20:43:56.381Z,19.20
2018-06-15T20:46:24.992Z,19.20
2018-06-15T20:48:53.675Z,19.10
2018-06-15T20:51:22.332Z,19.00
2018-06-15T20:53:50.872Z,18.90
2018-06-15T20:56:19.471Z,18.90
2018-06-15T20:58:48.007Z,18.80
2018-06-15T21:01:16.596Z,18.80
2018-06-15T21:03:45.248Z,18.70
2018-06-15T21:06:13.883Z,18.60
2018-06-15T21:08:42.537Z,18.60
2018-06-15T21:11:11.127Z,18.60
2018-06-15T21:13:39.763Z,18.50
2018-06-15T21:16:08.510Z,18.50
2018-06-15T21:18:37.122Z,18.50
2018-06-15T21:21:05.966Z,18.50
2018-06-15T21:23:34.686Z,18.60
2018-06-15T21:26:03.270Z,18.70
2018-06-15T21:28:31.846Z,18.80
2018-06-15T21:31:00.509Z,18.80
2018-06-15T21:33:29.190Z,18.90
2018-06-15T21:35:57.922Z,18.90
2018-06-15T21:38:26.475Z,18.90
2018-06-15T21:40:55.316Z,18.90
2018-06-15T21:43:23.904Z,18.80
2018-06-15T21:45:52.606Z,18.80
2018-06-15T21:48:21.204Z,18.80
2018-06-15T21:50:49.960Z,18.80
2018-06-15T21:53:18.601Z,18.80
2018-06-15T21:55:47.290Z,18.80
2018-06-15T21:58:15.840Z,18.90
2018-06-15T22:00:44.439Z,18.90
2018-06-15T22:03:13.050Z,19.00
2018-06-15T22:05:41.803Z,19.10
2018-06-15T22:08:10.515Z,19.10
2018-06-15T22:10:39.059Z,19.10
2018-06-15T22:13:07.751Z,19.20
2018-06-15T22:15:36.495Z,19.20
2018-06-15T22:18:05.429Z,19.20
2018-06-15T22:20:34.277Z,19.10
2018-06-15T22:23:02.970Z,19.00
2018-06-15T22:25:31.649Z,19.00
2018-06-15T22:28:00.366Z,18.90
2018-06-15T22:30:29.043Z,18.90
2018-06-15T22:32:57.591Z,19.00
2018-06-15T22:35:26.175Z,18.90
2018-06-15T22:37:54.752Z,18.90
2018-06-15T22:40:23.347Z,18.90
2018-06-15T22:42:52.031Z,18.90
2018-06-15T22:45:20.655Z,18.90
2018-06-15T22:47:49.478Z,18.90
2018-06-15T22:50:18.183Z,18.90
2018-06-15T22:52:46.770Z,19.00
2018-06-15T22:55:15.704Z,19.00
2018-06-15T22:57:44.391Z,19.00
2018-06-15T23:00:16.767Z,19.00
2018-06-15T23:02:45.547Z,19.10
2018-06-15T23:05:14.267Z,19.10
2018-06-15T23:07:43.174Z,19.10
2018-06-15T23:10:11.753Z,19.10
2018-06-15T23:12:40.354Z,19.10
2018-06-15T23:17:37.118Z,19.20
2018-06-15T23:20:05.782Z,19.20
2018-06-15T23:22:34.474Z,19.20
2018-06-15T23:25:03.356Z,19.20
2018-06-15T23:27:32.088Z,19.20
2018-06-15T23:30:00.659Z,19.20
2018-06-15T23:32:29.373Z,19.20
2018-06-15T23:34:57.976Z,19.20
2018-06-15T23:37:26.589Z,19.20
2018-06-15T23:39:55.108Z,19.20
2018-06-15T23:42:23.756Z,19.20
2018-06-15T23:44:52.509Z,19.10
2018-06-15T23:47:21.151Z,19.10
2018-06-15T23:49:49.952Z,19.20
2018-06-15T23:52:18.603Z,19.20
2018-06-15T23:54:47.476Z,19.20
2018-06-15T23:57:16.167Z,19.20
2018-06-15T23:59:44.886Z,19.20
